createdAt,value
2023-03-26T00:02:02.279Z,35.67
2023-03-26T00:04:30.226Z,33.33
2023-03-26T00:06:57.557Z,31.88
2023-03-26T00:09:24.975Z,31.80
2023-03-26T00:11:52.432Z,30.37
2023-03-26T00:14:19.770Z,32.47
2023-03-26T00:16:47.829Z,28.98
2023-03-26T00:19:16.142Z,29.88
2023-03-26T00:21:47.013Z,30.10
2023-03-26T00:24:17.890Z,28.80
2023-03-26T00:26:48.803Z,29.35
2023-03-26T00:29:17.237Z,29.65
2023-03-26T00:31:46.735Z,30.42
2023-03-26T00:34:16.198Z,30.05
2023-03-26T00:36:47.452Z,28.53
2023-03-26T00:39:15.510Z,27.67
2023-03-26T00:41:43.512Z,28.85
2023-03-26T00:44:11.284Z,25.00
2023-03-26T00:46:38.714Z,27.23
2023-03-26T00:49:08.314Z,26.17
2023-03-26T00:51:36.751Z,24.10
2023-03-26T00:54:04.125Z,22.88
2023-03-26T00:56:31.933Z,22.08
2023-03-26T00:59:00.582Z,20.85
2023-03-26T01:01:30.759Z,23.37
2023-03-26T01:04:08.620Z,22.45
2023-03-26T01:06:38.149Z,22.48
2023-03-26T01:09:16.509Z,20.83
2023-03-26T01:11:43.822Z,26.20
2023-03-26T01:14:15.958Z,24.57
2023-03-26T01:16:45.268Z,21.35
2023-03-26T01:19:24.304Z,25.10
2023-03-26T01:21:52.928Z,24.63
2023-03-26T01:24:21.048Z,24.70
2023-03-26T01:27:00.916Z,25.70
2023-03-26T01:29:41.730Z,28.25
2023-03-26T01:32:16.309Z,25.55
2023-03-26T01:35:03.831Z,25.50
2023-03-26T01:37:43.117Z,27.38
2023-03-26T01:40:18.457Z,23.80
2023-03-26T01:43:04.232Z,24.42
2023-03-26T01:45:34.579Z,25.27
2023-03-26T01:48:02.377Z,24.55
2023-03-26T01:50:32.600Z,26.00
2023-03-26T01:53:01.272Z,24.20
2023-03-26T01:55:44.350Z,23.20
2023-03-26T01:58:18.150Z,23.48
2023-03-26T02:01:02.657Z,23.60
2023-03-26T02:03:31.781Z,22.50
2023-03-26T02:06:02.424Z,22.00
2023-03-26T02:08:36.144Z,22.42
2023-03-26T02:11:08.935Z,23.42
2023-03-26T02:13:36.705Z,22.25
2023-03-26T02:16:06.202Z,22.95
2023-03-26T02:18:42.299Z,20.70
2023-03-26T02:21:12.614Z,20.52
2023-03-26T02:23:47.218Z,20.90
2023-03-26T02:26:19.120Z,23.85
2023-03-26T02:29:05.034Z,24.75
2023-03-26T02:31:36.221Z,24.33
2023-03-26T02:34:06.050Z,22.63
2023-03-26T02:36:36.485Z,19.10
2023-03-26T02:39:05.225Z,22.08
2023-03-26T02:41:37.272Z,24.42
2023-03-26T02:44:08.675Z,22.60
2023-03-26T02:47:14.875Z,13.98
2023-03-26T02:49:54.123Z,14.35
2023-03-26T02:52:45.851Z,12.75
2023-03-26T02:55:13.416Z,14.40
2023-03-26T02:57:42.151Z,11.97
2023-03-26T03:00:10.577Z,13.65
2023-03-26T03:02:41.121Z,13.45
2023-03-26T03:05:32.091Z,14.77
2023-03-26T03:08:22.575Z,12.40
2023-03-26T03:11:16.307Z,13.37
2023-03-26T03:13:46.449Z,12.80
2023-03-26T03:16:19.321Z,12.65
2023-03-26T03:18:47.985Z,13.88
2023-03-26T03:21:16.616Z,13.60
2023-03-26T03:23:44.052Z,11.53
2023-03-26T03:26:18.057Z,13.40
2023-03-26T03:28:51.613Z,12.75
2023-03-26T03:31:19.270Z,12.65
2023-03-26T03:33:46.884Z,11.05
2023-03-26T03:36:20.177Z,26.07
2023-03-26T03:38:51.776Z,12.07
2023-03-26T03:41:24.908Z,11.98
2023-03-26T03:43:52.292Z,12.23
2023-03-26T03:46:28.522Z,15.20
2023-03-26T03:48:56.499Z,9.80
2023-03-26T03:51:29.103Z,11.93
2023-03-26T03:54:00.531Z,11.30
2023-03-26T03:56:45.968Z,14.40
2023-03-26T03:59:31.879Z,12.07
2023-03-26T04:02:05.285Z,33.07
2023-03-26T04:04:41.343Z,14.38
2023-03-26T04:07:13.651Z,57.08
2023-03-26T04:10:07.393Z,10.30
2023-03-26T04:12:53.372Z,14.80
2023-03-26T04:15:33.262Z,26.00
2023-03-26T04:18:03.899Z,36.28
2023-03-26T04:20:32.440Z,12.25
2023-03-26T04:23:03.807Z,12.63
2023-03-26T04:25:37.051Z,20.83
2023-03-26T04:28:15.203Z,32.43
2023-03-26T04:30:57.538Z,23.35
2023-03-26T04:33:39.571Z,16.40
2023-03-26T04:36:07.730Z,10.13
2023-03-26T04:38:42.818Z,10.25
2023-03-26T04:41:17.487Z,12.77
2023-03-26T04:44:12.163Z,29.10
2023-03-26T04:46:55.833Z,10.55
2023-03-26T04:49:32.687Z,25.60
2023-03-26T04:52:06.315Z,10.02
2023-03-26T04:54:52.147Z,9.90
2023-03-26T04:57:25.053Z,9.57
2023-03-26T05:00:20.859Z,8.52
2023-03-26T05:02:56.455Z,7.30
2023-03-26T05:05:27.602Z,8.43
2023-03-26T05:08:00.992Z,7.73
2023-03-26T05:10:31.445Z,6.68
2023-03-26T05:13:13.897Z,7.10
2023-03-26T05:15:48.474Z,13.75
2023-03-26T05:18:29.305Z,17.52
2023-03-26T05:20:57.783Z,7.43
2023-03-26T05:23:26.488Z,6.97
2023-03-26T05:26:05.691Z,83.10
2023-03-26T05:28:35.395Z,7.22
2023-03-26T05:31:21.823Z,37.10
2023-03-26T05:33:55.522Z,7.17
2023-03-26T05:36:23.887Z,6.55
2023-03-26T05:39:09.176Z,9.48
2023-03-26T05:41:57.583Z,6.20
2023-03-26T05:44:35.688Z,6.13
2023-03-26T05:47:10.490Z,14.77
2023-03-26T05:49:38.837Z,10.52
2023-03-26T05:52:07.905Z,20.30
2023-03-26T05:54:57.167Z,9.40
2023-03-26T05:57:43.361Z,9.85
2023-03-26T06:00:29.156Z,23.37
2023-03-26T06:02:59.441Z,11.40
2023-03-26T06:06:01.658Z,11.50
2023-03-26T06:09:02.181Z,6.65
2023-03-26T06:11:35.062Z,8.35
2023-03-26T06:14:06.019Z,21.70
2023-03-26T06:16:38.387Z,51.30
2023-03-26T06:19:24.171Z,13.50
2023-03-26T06:22:12.715Z,36.67
2023-03-26T06:25:09.396Z,11.15
2023-03-26T06:28:05.718Z,36.83
2023-03-26T06:30:36.265Z,7.13
2023-03-26T06:33:24.707Z,13.23
2023-03-26T06:35:52.794Z,11.18
2023-03-26T06:38:22.694Z,6.82
2023-03-26T06:41:11.702Z,5.00
2023-03-26T06:44:19.479Z,10.88
2023-03-26T06:47:16.557Z,18.08
2023-03-26T06:50:09.630Z,5.20
2023-03-26T06:52:57.566Z,4.80
2023-03-26T06:55:43.625Z,5.40
2023-03-26T06:58:25.528Z,4.68
2023-03-26T07:01:26.750Z,13.02
2023-03-26T07:04:18.509Z,11.40
2023-03-26T07:07:10.930Z,11.80
2023-03-26T07:10:01.022Z,9.20
2023-03-26T07:13:00.853Z,6.13
2023-03-26T07:15:51.506Z,8.18
2023-03-26T07:18:51.558Z,9.25
2023-03-26T07:21:22.443Z,5.10
2023-03-26T07:23:51.330Z,5.43
2023-03-26T07:26:51.353Z,5.28
2023-03-26T07:29:21.495Z,6.30
2023-03-26T07:32:34.602Z,5.97
2023-03-26T07:35:22.021Z,5.43
2023-03-26T07:38:38.781Z,4.63
2023-03-26T07:41:41.314Z,9.07
2023-03-26T07:44:47.813Z,4.75
2023-03-26T07:47:45.532Z,5.28
2023-03-26T07:50:22.254Z,4.30
2023-03-26T07:53:25.459Z,5.07
2023-03-26T07:56:17.192Z,9.05
2023-03-26T07:59:18.172Z,5.47
2023-03-26T08:02:29.385Z,5.32
2023-03-26T08:05:15.290Z,5.55
2023-03-26T08:07:58.051Z,5.23
2023-03-26T08:10:54.147Z,8.65
2023-03-26T08:13:40.938Z,4.75
2023-03-26T08:16:24.894Z,4.35
2023-03-26T08:18:55.149Z,7.82
2023-03-26T08:21:47.318Z,10.40
2023-03-26T08:24:24.302Z,4.22
2023-03-26T08:27:15.713Z,5.93
2023-03-26T08:33:02.060Z,6.80
2023-03-26T08:35:35.797Z,7.37
2023-03-26T08:38:06.555Z,5.15
2023-03-26T08:40:54.469Z,12.23
2023-03-26T08:43:29.051Z,10.60
2023-03-26T08:45:59.902Z,4.63
2023-03-26T08:48:55.559Z,4.47
2023-03-26T08:51:29.122Z,5.25
2023-03-26T08:54:20.372Z,7.70
2023-03-26T08:56:59.182Z,6.38
2023-03-26T08:59:46.409Z,5.85
2023-03-26T09:02:41.137Z,5.43
2023-03-26T09:05:32.464Z,4.38
2023-03-26T09:08:05.411Z,5.57
2023-03-26T09:10:40.768Z,6.35
2023-03-26T09:13:41.395Z,8.65
2023-03-26T09:16:45.066Z,5.43
2023-03-26T09:19:34.331Z,7.15
2023-03-26T09:22:19.924Z,5.95
2023-03-26T09:25:13.934Z,5.60
2023-03-26T09:28:09.637Z,6.25
2023-03-26T09:31:08.347Z,5.70
2023-03-26T09:34:00.477Z,4.40
2023-03-26T09:36:43.591Z,4.18
2023-03-26T09:42:18.800Z,5.82
2023-03-26T09:44:59.150Z,4.57
2023-03-26T09:47:46.265Z,4.05
2023-03-26T09:50:47.667Z,5.45
2023-03-26T09:53:51.338Z,3.72
2023-03-26T09:56:33.012Z,5.25
2023-03-26T09:59:38.294Z,4.40
2023-03-26T10:02:45.797Z,4.35
2023-03-26T10:08:25.807Z,4.38
2023-03-26T10:11:26.640Z,4.38
2023-03-26T10:14:14.415Z,6.73
2023-03-26T10:16:47.709Z,5.75
2023-03-26T10:19:38.773Z,6.90
2023-03-26T10:22:46.570Z,6.63
2023-03-26T10:25:30.551Z,5.60
2023-03-26T10:28:04.844Z,5.00
2023-03-26T10:31:06.251Z,8.23
2023-03-26T10:33:58.689Z,7.00
2023-03-26T10:36:47.947Z,4.72
2023-03-26T10:39:38.401Z,4.00
2023-03-26T10:42:24.156Z,4.23
2023-03-26T10:45:18.567Z,5.97
2023-03-26T10:48:05.225Z,3.78
2023-03-26T10:50:39.887Z,4.53
2023-03-26T10:53:28.484Z,4.70
2023-03-26T10:56:13.155Z,8.97
2023-03-26T10:58:48.774Z,4.75
2023-03-26T11:01:51.621Z,4.22
2023-03-26T11:04:47.592Z,4.68
2023-03-26T11:07:26.973Z,3.65
2023-03-26T11:10:09.816Z,3.63
2023-03-26T11:12:43.746Z,4.35
2023-03-26T11:15:25.766Z,4.18
2023-03-26T11:18:09.983Z,3.83
2023-03-26T11:21:18.633Z,3.35
2023-03-26T11:24:21.110Z,3.77
2023-03-26T11:27:16.232Z,3.83
2023-03-26T11:30:15.887Z,3.42
2023-03-26T11:33:15.247Z,4.45
2023-03-26T11:35:58.655Z,3.85
2023-03-26T11:38:41.747Z,4.07
2023-03-26T11:41:15.781Z,5.82
2023-03-26T11:44:39.981Z,4.70
2023-03-26T11:47:20.196Z,3.90
2023-03-26T11:49:57.521Z,4.05
2023-03-26T11:52:42.139Z,3.40
2023-03-26T11:55:15.642Z,3.97
2023-03-26T11:58:09.123Z,3.53
2023-03-26T12:00:41.113Z,4.03
2023-03-26T12:03:18.480Z,4.32
2023-03-26T12:06:01.855Z,3.97
2023-03-26T12:08:46.345Z,3.97
2023-03-26T12:11:21.936Z,5.00
2023-03-26T12:23:49.379Z,4.32
2023-03-26T12:26:45.842Z,4.93
2023-03-26T12:29:17.137Z,5.55
2023-03-26T12:32:06.722Z,2.97
2023-03-26T12:34:42.119Z,3.50
2023-03-26T12:37:53.262Z,4.40
2023-03-26T12:40:43.422Z,4.25
2023-03-26T12:44:50.337Z,3.15
2023-03-26T12:47:57.105Z,3.85
2023-03-26T12:52:58.096Z,3.92
2023-03-26T12:55:49.215Z,6.40
2023-03-26T12:58:31.407Z,4.20
2023-03-26T13:01:29.054Z,2.95
2023-03-26T13:04:01.138Z,2.77
2023-03-26T13:06:59.065Z,3.15
2023-03-26T13:09:56.629Z,3.55
2023-03-26T13:12:36.778Z,3.10
2023-03-26T13:15:09.804Z,4.30
2023-03-26T13:17:51.211Z,4.00
2023-03-26T13:20:48.675Z,3.55
2023-03-26T13:23:27.311Z,3.83
2023-03-26T13:26:14.968Z,2.95
2023-03-26T13:29:14.353Z,4.00
2023-03-26T13:32:03.380Z,3.60
2023-03-26T13:34:58.061Z,3.00
2023-03-26T13:37:47.080Z,2.70
2023-03-26T13:40:37.564Z,2.35
2023-03-26T13:43:18.448Z,2.72
2023-03-26T13:45:51.013Z,2.47
2023-03-26T13:48:31.469Z,2.85
2023-03-26T13:51:11.083Z,3.10
2023-03-26T13:53:53.120Z,2.67
2023-03-26T13:56:44.226Z,3.47
2023-03-26T13:59:21.391Z,3.30
2023-03-26T14:01:56.408Z,3.25
2023-03-26T14:04:32.911Z,2.88
2023-03-26T14:07:13.113Z,3.20
2023-03-26T14:09:50.568Z,2.72
2023-03-26T14:12:38.683Z,2.23
2023-03-26T14:15:41.284Z,3.22
2023-03-26T14:18:51.164Z,3.03
2023-03-26T14:21:53.161Z,3.70
2023-03-26T14:27:13.785Z,2.77
2023-03-26T14:29:59.928Z,2.35
2023-03-26T14:32:46.821Z,4.13
2023-03-26T14:35:52.754Z,2.78
2023-03-26T14:38:36.240Z,2.35
2023-03-26T14:41:18.592Z,4.63
2023-03-26T14:44:07.444Z,2.92
2023-03-26T14:49:56.161Z,3.03
2023-03-26T14:52:35.729Z,3.08
2023-03-26T14:55:32.312Z,6.47
2023-03-26T14:58:08.609Z,2.72
2023-03-26T15:01:04.089Z,2.67
2023-03-26T15:03:56.784Z,2.55
2023-03-26T15:06:50.774Z,2.92
2023-03-26T15:09:43.709Z,2.83
2023-03-26T15:12:33.306Z,2.38
2023-03-26T15:15:35.433Z,2.13
2023-03-26T15:18:27.438Z,2.85
2023-03-26T15:21:02.634Z,3.72
2023-03-26T15:23:55.535Z,2.33
2023-03-26T15:26:47.850Z,3.42
2023-03-26T15:29:50.779Z,6.20
2023-03-26T15:32:30.671Z,2.67
2023-03-26T15:35:15.323Z,2.70
2023-03-26T15:37:46.865Z,2.37
2023-03-26T15:40:25.972Z,3.60
2023-03-26T15:43:02.572Z,2.85
2023-03-26T15:45:36.794Z,3.20
2023-03-26T15:48:11.376Z,3.08
2023-03-26T15:50:58.958Z,3.37
2023-03-26T15:57:23.682Z,2.88
2023-03-26T16:00:10.298Z,3.42
2023-03-26T16:02:44.973Z,4.97
2023-03-26T16:05:36.074Z,3.67
2023-03-26T16:08:23.580Z,4.03
2023-03-26T16:11:00.738Z,2.75
2023-03-26T16:13:36.448Z,3.25
2023-03-26T16:16:04.165Z,2.70
2023-03-26T16:18:36.197Z,2.40
2023-03-26T16:21:04.715Z,5.85
2023-03-26T16:23:47.303Z,3.15
2023-03-26T16:26:35.845Z,4.40
2023-03-26T16:29:15.996Z,5.25
2023-03-26T16:32:03.866Z,6.27
2023-03-26T16:34:52.184Z,2.80
2023-03-26T16:37:43.778Z,3.33
2023-03-26T16:40:17.326Z,2.78
2023-03-26T16:43:05.846Z,2.85
2023-03-26T16:45:59.465Z,3.13
2023-03-26T16:48:59.024Z,3.47
2023-03-26T16:55:32.221Z,5.32
2023-03-26T16:58:11.422Z,5.90
2023-03-26T17:00:58.322Z,6.70
2023-03-26T17:03:38.101Z,8.43
2023-03-26T17:06:32.424Z,16.10
2023-03-26T17:09:15.665Z,11.00
2023-03-26T17:11:49.023Z,9.38
2023-03-26T17:14:51.859Z,8.03
2023-03-26T17:17:19.111Z,8.32
2023-03-26T17:19:59.984Z,6.93
2023-03-26T17:22:42.389Z,6.63
2023-03-26T17:25:52.893Z,5.10
2023-03-26T17:28:30.783Z,4.63
2023-03-26T17:31:21.588Z,5.07
2023-03-26T17:33:52.075Z,4.85
2023-03-26T17:36:19.362Z,3.95
2023-03-26T17:38:47.906Z,3.22
2023-03-26T17:41:35.178Z,3.93
2023-03-26T17:44:06.001Z,4.78
2023-03-26T17:46:46.004Z,2.92
2023-03-26T17:49:18.635Z,4.15
2023-03-26T17:51:48.549Z,4.63
2023-03-26T17:54:34.415Z,4.37
2023-03-26T17:57:04.443Z,7.72
2023-03-26T17:59:32.658Z,7.05
2023-03-26T18:02:01.278Z,6.82
2023-03-26T18:04:35.027Z,7.63
2023-03-26T18:07:15.771Z,6.93
2023-03-26T18:09:50.493Z,7.28
2023-03-26T18:12:37.459Z,6.55
2023-03-26T18:15:25.712Z,4.78
2023-03-26T18:17:58.975Z,8.82
2023-03-26T18:20:28.816Z,5.53
2023-03-26T18:23:01.730Z,5.63
2023-03-26T18:25:32.550Z,6.07
2023-03-26T18:28:01.516Z,5.25
2023-03-26T18:30:29.567Z,5.60
2023-03-26T18:33:14.612Z,6.77
2023-03-26T18:35:43.743Z,4.75
2023-03-26T18:38:15.481Z,6.57
2023-03-26T18:40:46.418Z,6.38
2023-03-26T18:43:34.465Z,5.65
2023-03-26T18:46:03.992Z,5.00
2023-03-26T18:48:31.495Z,5.57
2023-03-26T18:51:05.100Z,4.85
2023-03-26T18:53:39.008Z,4.57
2023-03-26T18:56:39.116Z,5.63
2023-03-26T18:59:07.850Z,5.53
2023-03-26T19:01:36.922Z,5.70
2023-03-26T19:04:06.362Z,5.75
2023-03-26T19:06:38.587Z,7.88
2023-03-26T19:09:28.026Z,5.60
2023-03-26T19:12:04.479Z,5.60
2023-03-26T19:14:37.128Z,5.65
2023-03-26T19:17:06.083Z,8.27
2023-03-26T19:19:37.112Z,5.65
2023-03-26T19:22:05.847Z,6.32
2023-03-26T19:24:34.683Z,6.40
2023-03-26T19:27:03.019Z,6.20
2023-03-26T19:29:32.838Z,5.47
2023-03-26T19:32:03.086Z,7.45
2023-03-26T19:34:35.600Z,5.35
2023-03-26T19:37:07.024Z,5.50
2023-03-26T19:39:43.075Z,6.15
2023-03-26T19:42:14.828Z,6.00
2023-03-26T19:44:43.468Z,5.18
2023-03-26T19:47:13.963Z,6.30
2023-03-26T19:49:51.327Z,7.53
2023-03-26T19:52:27.289Z,6.38
2023-03-26T19:55:13.175Z,8.77
2023-03-26T19:57:45.574Z,5.25
2023-03-26T20:00:16.565Z,7.43
2023-03-26T20:02:46.705Z,6.70
2023-03-26T20:05:26.332Z,7.18
2023-03-26T20:07:58.015Z,6.05
2023-03-26T20:10:25.288Z,8.15
2023-03-26T20:12:52.984Z,7.13
2023-03-26T20:15:24.718Z,5.90
2023-03-26T20:17:55.758Z,9.52
2023-03-26T20:20:29.592Z,8.32
2023-03-26T20:22:57.255Z,7.93
2023-03-26T20:25:28.815Z,7.40
2023-03-26T20:27:58.886Z,7.20
2023-03-26T20:30:37.332Z,7.28
2023-03-26T20:33:12.521Z,7.30
2023-03-26T20:35:41.145Z,9.65
2023-03-26T20:38:09.957Z,7.68
2023-03-26T20:40:38.734Z,10.13
2023-03-26T20:43:11.632Z,8.10
2023-03-26T20:45:42.497Z,9.18
2023-03-26T20:48:10.758Z,8.70
2023-03-26T20:50:50.002Z,8.75
2023-03-26T20:53:19.298Z,9.33
2023-03-26T20:55:46.936Z,8.52
2023-03-26T20:58:15.489Z,9.38
2023-03-26T21:00:45.288Z,8.32
2023-03-26T21:03:14.173Z,9.75
2023-03-26T21:05:44.592Z,10.93
2023-03-26T21:08:19.854Z,12.05
2023-03-26T21:10:47.645Z,13.45
2023-03-26T21:13:17.795Z,11.43
2023-03-26T21:15:45.727Z,11.88
2023-03-26T21:18:13.176Z,12.27
2023-03-26T21:20:41.665Z,11.07
2023-03-26T21:23:16.623Z,10.90
2023-03-26T21:26:03.915Z,9.23
2023-03-26T21:28:41.955Z,10.80
2023-03-26T21:31:14.707Z,9.83
2023-03-26T21:33:44.694Z,7.93
2023-03-26T21:36:13.434Z,8.88
2023-03-26T21:38:44.201Z,9.63
2023-03-26T21:41:44.605Z,8.15
2023-03-26T21:44:12.496Z,12.57
2023-03-26T21:46:41.498Z,10.48
2023-03-26T21:49:09.029Z,11.73
2023-03-26T21:51:36.722Z,14.38
2023-03-26T21:54:04.733Z,14.07
2023-03-26T21:56:46.641Z,12.43
2023-03-26T21:59:16.452Z,12.10
2023-03-26T22:01:58.744Z,12.30
2023-03-26T22:04:26.950Z,11.93
2023-03-26T22:07:14.603Z,11.93
2023-03-26T22:09:41.971Z,11.97
2023-03-26T22:12:10.895Z,10.30
2023-03-26T22:14:41.204Z,10.15
2023-03-26T22:17:08.447Z,8.55
2023-03-26T22:19:36.405Z,9.07
2023-03-26T22:22:04.002Z,10.30
2023-03-26T22:24:31.136Z,7.45
2023-03-26T22:26:59.359Z,8.35
2023-03-26T22:29:27.649Z,8.40
2023-03-26T22:31:54.937Z,7.40
2023-03-26T22:34:23.561Z,7.63
2023-03-26T22:36:51.183Z,8.13
2023-03-26T22:39:18.708Z,7.53
2023-03-26T22:41:48.502Z,8.35
2023-03-26T22:44:20.256Z,8.52
2023-03-26T22:46:49.652Z,8.00
2023-03-26T22:49:17.779Z,8.68
2023-03-26T22:51:45.083Z,8.68
2023-03-26T22:54:12.463Z,8.18
2023-03-26T22:56:43.873Z,8.13
2023-03-26T22:59:11.247Z,7.37
2023-03-26T23:01:38.585Z,6.88
2023-03-26T23:04:06.379Z,7.80
2023-03-26T23:06:33.902Z,7.60
2023-03-26T23:09:01.666Z,6.90
2023-03-26T23:11:33.040Z,8.97
2023-03-26T23:14:00.201Z,7.00
2023-03-26T23:16:27.608Z,8.00
2023-03-26T23:18:55.933Z,8.88
2023-03-26T23:21:26.293Z,8.07
2023-03-26T23:23:53.795Z,8.10
2023-03-26T23:26:21.765Z,11.52
2023-03-26T23:28:54.826Z,8.48
2023-03-26T23:31:22.083Z,8.43
2023-03-26T23:33:50.655Z,8.73
2023-03-26T23:36:19.052Z,8.60
2023-03-26T23:38:47.388Z,8.32
2023-03-26T23:41:16.148Z,7.80
2023-03-26T23:43:54.215Z,7.43
2023-03-26T23:46:23.913Z,8.48
2023-03-26T23:48:52.477Z,8.23
2023-03-26T23:51:24.361Z,7.88
2023-03-26T23:53:52.842Z,9.30
2023-03-26T23:56:20.690Z,10.63
2023-03-26T23:58:49.171Z,9.52
